Time;durP1;ratioP1;P1;durP2;ratioP2;P2;SDS_P1;SDS_P2;PMS_P1;PMS_P2;Temp;Humidity;BMP_temperature;BMP_pressure;BME280_temperature;BME280_humidity;BME280_pressure;Samples;Min_cycle;Max_cycle;Signal;HPM_P1;HPM_P2
2022/01/24 00:01:19;;;;;;;11.23;3.17;;;;;;;;;;5003526;28;20034;-49
2022/01/24 00:03:45;;;;;;;15.35;3.63;;;;;;;;;;4998498;28;20064;-52
2022/01/24 00:06:14;;;;;;;13.13;3.10;;;;;;;;;;4999210;28;20042;-48
2022/01/24 00:08:39;;;;;;;12.23;3.05;;;;;;;;;;4996580;28;20044;-50
2022/01/24 00:11:09;;;;;;;25.35;3.50;;;;;;;;;;4985264;28;20029;-47
2022/01/24 00:27:05;;;;;;;20.10;3.80;;;;;;;;;;4998452;28;20029;-48
2022/01/24 00:29:30;;;;;;;13.30;2.97;;;;;;;;;;4999664;28;20101;-47
2022/01/24 00:31:56;;;;;;;27.45;3.55;;;;;;;;;;4998366;28;20490;-46
2022/01/24 00:34:23;;;;;;;23.40;3.95;;;;;;;;;;5002100;28;20034;-46
2022/01/24 00:36:50;;;;;;;18.98;2.97;;;;;;;;;;4995624;28;20103;-48
2022/01/24 00:39:16;;;;;;;14.85;3.22;;;;;;;;;;4997897;28;20026;-47
2022/01/24 00:41:54;;;;;;;12.07;3.17;;;;;;;;;;4998390;28;20144;-48
2022/01/24 00:46:56;;;;;;;16.77;3.78;;;;;;;;;;5003223;28;20099;-46
2022/01/24 00:54:43;;;;;;;16.23;3.28;;;;;;;;;;5002969;28;20129;-46
2022/01/24 00:57:10;;;;;;;14.43;2.75;;;;;;;;;;5003997;28;20460;-46
2022/01/24 00:59:36;;;;;;;19.73;2.67;;;;;;;;;;5003074;28;20088;-48
2022/01/24 01:02:03;;;;;;;13.50;3.28;;;;;;;;;;5001698;28;20049;-51
2022/01/24 01:04:40;;;;;;;11.52;3.00;;;;;;;;;;5003856;28;20325;-50
2022/01/24 01:07:07;;;;;;;9.93;2.75;;;;;;;;;;5003859;28;20156;-50
2022/01/24 01:20:37;;;;;;;32.25;3.55;;;;;;;;;;5001714;28;20512;-44
2022/01/24 01:23:02;;;;;;;15.80;3.30;;;;;;;;;;5004403;28;20495;-48
2022/01/24 01:25:28;;;;;;;16.45;3.00;;;;;;;;;;5003856;28;20087;-47
2022/01/24 01:27:54;;;;;;;28.52;3.45;;;;;;;;;;4989107;28;20073;-47
2022/01/24 01:30:22;;;;;;;29.50;3.97;;;;;;;;;;5004150;28;20029;-50
2022/01/24 01:33:04;;;;;;;18.35;3.17;;;;;;;;;;5003259;28;20026;-47
2022/01/24 01:35:50;;;;;;;16.55;3.33;;;;;;;;;;5003649;28;20088;-50
2022/01/24 01:54:36;;;;;;;13.35;3.25;;;;;;;;;;5005844;28;20092;-46
2022/01/24 01:57:02;;;;;;;12.88;3.92;;;;;;;;;;4989969;28;20046;-46
2022/01/24 01:59:28;;;;;;;24.10;3.03;;;;;;;;;;5003287;28;20025;-47
2022/01/24 02:01:54;;;;;;;16.33;3.70;;;;;;;;;;5003421;28;20079;-46
2022/01/24 02:04:20;;;;;;;10.70;3.70;;;;;;;;;;5002680;28;20121;-51
2022/01/24 02:06:45;;;;;;;24.13;4.47;;;;;;;;;;5001493;28;20037;-49
2022/01/24 02:09:13;;;;;;;21.00;3.80;;;;;;;;;;5003105;28;20065;-49
2022/01/24 02:11:38;;;;;;;15.30;4.32;;;;;;;;;;5000293;28;20121;-45
2022/01/24 02:14:13;;;;;;;20.17;4.78;;;;;;;;;;4994956;28;20121;-46
2022/01/24 02:17:00;;;;;;;21.15;4.93;;;;;;;;;;5004939;28;20510;-46
2022/01/24 02:19:48;;;;;;;19.80;5.40;;;;;;;;;;4988558;28;20026;-50
2022/01/24 02:22:41;;;;;;;20.65;5.57;;;;;;;;;;5002654;28;20077;-46
2022/01/24 02:25:11;;;;;;;16.33;5.07;;;;;;;;;;4999974;28;20143;-46
2022/01/24 02:27:47;;;;;;;14.68;6.00;;;;;;;;;;5001334;28;20113;-46
2022/01/24 02:30:37;;;;;;;20.70;6.30;;;;;;;;;;5003843;28;20465;-45
2022/01/24 02:33:00;;;;;;;18.90;5.13;;;;;;;;;;5001599;28;20041;-46
2022/01/24 02:35:26;;;;;;;15.52;5.43;;;;;;;;;;4996584;28;20026;-50
2022/01/24 02:37:51;;;;;;;20.75;5.95;;;;;;;;;;5002648;28;20049;-48
2022/01/24 02:40:19;;;;;;;16.08;4.95;;;;;;;;;;5002371;28;20042;-47
2022/01/24 02:48:26;;;;;;;17.30;5.35;;;;;;;;;;4999719;28;20123;-49
2022/01/24 02:51:46;;;;;;;16.52;5.20;;;;;;;;;;5002222;28;20536;-45
2022/01/24 02:53:48;;;;;;;24.52;5.60;;;;;;;;;;4992804;28;20043;-47
2022/01/24 02:56:13;;;;;;;23.17;5.97;;;;;;;;;;5000921;28;20220;-51
2022/01/24 02:58:39;;;;;;;21.02;5.70;;;;;;;;;;5001633;28;20116;-48
2022/01/24 03:01:07;;;;;;;14.40;5.35;;;;;;;;;;5000566;28;20037;-51
2022/01/24 03:03:34;;;;;;;14.77;5.60;;;;;;;;;;5003870;28;20412;-50
2022/01/24 03:05:59;;;;;;;16.63;5.80;;;;;;;;;;5002108;28;20056;-49
2022/01/24 03:08:25;;;;;;;16.55;6.38;;;;;;;;;;5003854;28;20057;-49
2022/01/24 03:10:52;;;;;;;22.70;5.75;;;;;;;;;;4994940;28;20034;-51
2022/01/24 03:13:32;;;;;;;12.85;4.97;;;;;;;;;;5002749;28;20127;-47
2022/01/24 03:16:00;;;;;;;16.63;5.45;;;;;;;;;;5002056;28;20141;-49
2022/01/24 03:18:27;;;;;;;14.55;5.63;;;;;;;;;;5003629;28;20029;-46
2022/01/24 03:20:53;;;;;;;20.77;6.07;;;;;;;;;;5006757;28;20033;-46
2022/01/24 03:23:21;;;;;;;19.48;5.70;;;;;;;;;;4982527;28;20030;-47
2022/01/24 03:25:46;;;;;;;24.27;5.78;;;;;;;;;;5001851;28;20423;-46
2022/01/24 03:28:13;;;;;;;19.75;5.95;;;;;;;;;;5002218;28;20040;-46
2022/01/24 03:30:39;;;;;;;34.30;6.07;;;;;;;;;;5001748;28;20405;-50
2022/01/24 03:33:05;;;;;;;23.02;5.93;;;;;;;;;;5000941;28;20488;-48
2022/01/24 03:35:32;;;;;;;18.08;6.38;;;;;;;;;;5000350;28;22374;-47
2022/01/24 03:37:58;;;;;;;24.48;6.57;;;;;;;;;;4999518;28;20034;-48
2022/01/24 03:40:23;;;;;;;21.50;5.97;;;;;;;;;;5000294;28;20034;-49
2022/01/24 03:42:49;;;;;;;26.75;5.88;;;;;;;;;;4999971;28;20040;-48
2022/01/24 03:45:23;;;;;;;21.92;6.05;;;;;;;;;;4998634;28;20026;-48
2022/01/24 03:50:46;;;;;;;17.73;5.45;;;;;;;;;;4978443;28;20479;-47
2022/01/24 03:53:11;;;;;;;16.83;5.63;;;;;;;;;;5002135;28;20030;-48
2022/01/24 03:55:37;;;;;;;15.63;5.35;;;;;;;;;;4998928;28;20136;-47
2022/01/24 03:58:02;;;;;;;19.20;6.15;;;;;;;;;;5002657;28;20034;-46
2022/01/24 04:00:28;;;;;;;20.38;6.70;;;;;;;;;;5006892;28;20501;-46
2022/01/24 04:02:54;;;;;;;18.25;7.05;;;;;;;;;;4999327;28;20448;-46
2022/01/24 04:05:20;;;;;;;23.23;6.47;;;;;;;;;;4998656;28;20022;-46
2022/01/24 04:07:45;;;;;;;25.10;6.63;;;;;;;;;;5000933;28;20408;-45
2022/01/24 04:10:12;;;;;;;19.83;6.40;;;;;;;;;;4995159;28;20511;-47
2022/01/24 04:12:40;;;;;;;24.88;6.47;;;;;;;;;;5002525;28;20663;-48
2022/01/24 04:17:46;;;;;;;18.30;6.90;;;;;;;;;;4996847;28;20064;-47
2022/01/24 04:22:59;;;;;;;24.70;6.47;;;;;;;;;;5000789;28;20068;-46
2022/01/24 04:25:25;;;;;;;17.98;6.72;;;;;;;;;;4998795;28;20477;-47
2022/01/24 04:27:53;;;;;;;21.75;7.28;;;;;;;;;;5000866;28;20128;-47
2022/01/24 04:30:20;;;;;;;25.52;7.55;;;;;;;;;;5001533;28;20451;-46
2022/01/24 04:32:45;;;;;;;23.80;6.97;;;;;;;;;;4999594;28;20040;-47
2022/01/24 04:35:11;;;;;;;14.88;7.05;;;;;;;;;;4999476;28;20424;-47
2022/01/24 04:37:36;;;;;;;32.42;9.02;;;;;;;;;;5001671;28;20061;-47
2022/01/24 04:40:03;;;;;;;23.13;7.93;;;;;;;;;;4996028;28;20480;-50
2022/01/24 04:42:44;;;;;;;27.15;8.43;;;;;;;;;;5000191;28;20029;-46
2022/01/24 04:45:28;;;;;;;28.63;8.20;;;;;;;;;;4997091;28;20042;-46
2022/01/24 04:53:10;;;;;;;32.25;9.32;;;;;;;;;;4996588;28;20034;-46
2022/01/24 04:55:35;;;;;;;34.78;8.85;;;;;;;;;;4998843;28;20049;-49
2022/01/24 04:58:01;;;;;;;34.22;9.82;;;;;;;;;;4995988;28;20030;-48
2022/01/24 05:00:26;;;;;;;36.95;10.30;;;;;;;;;;5001168;28;20072;-50
2022/01/24 05:02:52;;;;;;;26.00;9.48;;;;;;;;;;4999764;28;20223;-47
2022/01/24 05:05:20;;;;;;;36.42;9.80;;;;;;;;;;5003492;28;20025;-50
2022/01/24 05:07:47;;;;;;;22.33;10.07;;;;;;;;;;4998149;28;20029;-50
2022/01/24 05:23:26;;;;;;;38.08;10.43;;;;;;;;;;5001160;28;20032;-47
2022/01/24 05:25:52;;;;;;;32.50;10.20;;;;;;;;;;4998198;28;20405;-46
2022/01/24 05:28:18;;;;;;;35.53;11.48;;;;;;;;;;4997182;28;20309;-46
2022/01/24 05:30:44;;;;;;;31.77;10.00;;;;;;;;;;5003654;28;20067;-50
2022/01/24 05:33:10;;;;;;;40.88;10.93;;;;;;;;;;5002498;28;20033;-50
2022/01/24 05:35:35;;;;;;;45.15;11.70;;;;;;;;;;5001598;28;20469;-46
2022/01/24 05:38:01;;;;;;;35.10;12.05;;;;;;;;;;5004723;28;20113;-50
2022/01/24 05:40:27;;;;;;;37.63;12.02;;;;;;;;;;5001625;28;20053;-47
2022/01/24 05:42:52;;;;;;;29.63;10.88;;;;;;;;;;5005635;28;20069;-46
2022/01/24 05:45:18;;;;;;;37.55;11.85;;;;;;;;;;5002338;28;20404;-47
2022/01/24 05:47:44;;;;;;;38.97;12.20;;;;;;;;;;4997700;28;20088;-47
2022/01/24 05:50:09;;;;;;;40.90;13.20;;;;;;;;;;5005494;28;20049;-47
2022/01/24 05:52:35;;;;;;;28.70;11.60;;;;;;;;;;5002713;28;20116;-47
2022/01/24 05:55:01;;;;;;;60.72;13.02;;;;;;;;;;5002926;28;20075;-47
2022/01/24 05:57:27;;;;;;;51.67;13.45;;;;;;;;;;5004498;28;20508;-48
2022/01/24 05:59:52;;;;;;;47.17;12.57;;;;;;;;;;5002930;28;20114;-47
2022/01/24 06:02:18;;;;;;;47.63;15.88;;;;;;;;;;5003432;28;20073;-49
2022/01/24 06:04:44;;;;;;;53.75;12.93;;;;;;;;;;4985198;28;20253;-51
2022/01/24 06:07:09;;;;;;;37.00;12.65;;;;;;;;;;4981739;28;20372;-51
2022/01/24 06:09:34;;;;;;;43.33;13.25;;;;;;;;;;5004180;28;20125;-47
2022/01/24 06:12:00;;;;;;;45.72;13.05;;;;;;;;;;5002808;28;20146;-47
2022/01/24 06:14:26;;;;;;;41.65;12.15;;;;;;;;;;4986826;28;20309;-47
2022/01/24 06:16:52;;;;;;;45.92;13.18;;;;;;;;;;5002206;28;20034;-46
2022/01/24 06:19:17;;;;;;;48.40;12.98;;;;;;;;;;5001010;28;20061;-46
2022/01/24 06:21:44;;;;;;;42.05;13.77;;;;;;;;;;5003314;28;20408;-46
2022/01/24 06:24:11;;;;;;;45.45;12.98;;;;;;;;;;5001475;28;20044;-47
2022/01/24 06:26:36;;;;;;;54.28;14.73;;;;;;;;;;4984980;28;20175;-47
2022/01/24 06:29:02;;;;;;;49.13;12.38;;;;;;;;;;5004147;28;20504;-46
2022/01/24 06:31:28;;;;;;;43.10;13.32;;;;;;;;;;5002481;28;20033;-46
2022/01/24 06:33:54;;;;;;;42.67;12.98;;;;;;;;;;5003602;28;20068;-49
2022/01/24 06:36:19;;;;;;;55.03;13.05;;;;;;;;;;5002014;28;20401;-48
2022/01/24 06:38:45;;;;;;;45.33;13.68;;;;;;;;;;5002418;28;20049;-47
2022/01/24 06:41:10;;;;;;;42.00;13.23;;;;;;;;;;5001751;28;20032;-46
2022/01/24 06:43:36;;;;;;;46.85;14.60;;;;;;;;;;4998494;28;20132;-50
2022/01/24 06:46:02;;;;;;;44.95;14.05;;;;;;;;;;4999296;28;20396;-46
2022/01/24 06:48:28;;;;;;;43.58;14.32;;;;;;;;;;5003577;28;20044;-46
2022/01/24 06:50:54;;;;;;;46.20;14.70;;;;;;;;;;4982680;28;20528;-47
2022/01/24 06:53:19;;;;;;;36.10;13.27;;;;;;;;;;5003366;28;20124;-47
2022/01/24 06:55:45;;;;;;;52.42;13.85;;;;;;;;;;4987863;28;20073;-47
2022/01/24 06:58:11;;;;;;;47.13;12.90;;;;;;;;;;5002665;28;20030;-50
2022/01/24 07:00:36;;;;;;;47.50;12.88;;;;;;;;;;4995678;28;20547;-49
2022/01/24 07:03:02;;;;;;;67.60;14.82;;;;;;;;;;5002093;28;20079;-48
2022/01/24 07:05:29;;;;;;;34.92;12.35;;;;;;;;;;5000137;28;20061;-47
2022/01/24 07:07:56;;;;;;;47.55;13.27;;;;;;;;;;5001493;28;20033;-48
2022/01/24 07:10:24;;;;;;;40.60;13.95;;;;;;;;;;4999112;28;20137;-48
2022/01/24 07:12:51;;;;;;;39.60;12.73;;;;;;;;;;5000220;28;20112;-46
2022/01/24 07:15:19;;;;;;;51.75;14.27;;;;;;;;;;5001370;28;20042;-46
2022/01/24 07:20:28;;;;;;;35.28;13.10;;;;;;;;;;5000653;28;20044;-46
2022/01/24 07:22:54;;;;;;;41.95;13.27;;;;;;;;;;5000152;28;20046;-46
2022/01/24 07:25:21;;;;;;;37.30;12.25;;;;;;;;;;5002713;28;20018;-47
2022/01/24 07:27:47;;;;;;;31.20;11.40;;;;;;;;;;5000291;28;20505;-47
2022/01/24 07:30:12;;;;;;;48.92;13.93;;;;;;;;;;4998478;28;20114;-47
2022/01/24 07:32:38;;;;;;;40.35;12.77;;;;;;;;;;4998432;28;20507;-49
2022/01/24 07:35:04;;;;;;;49.00;13.60;;;;;;;;;;4999402;28;20034;-49
2022/01/24 07:37:29;;;;;;;36.88;12.07;;;;;;;;;;5003392;28;20072;-50
2022/01/24 07:39:55;;;;;;;37.25;12.13;;;;;;;;;;5001692;28;20096;-47
2022/01/24 07:42:39;;;;;;;44.75;12.50;;;;;;;;;;4996763;28;20037;-47
2022/01/24 07:45:05;;;;;;;50.42;12.75;;;;;;;;;;4997504;28;20069;-51
2022/01/24 07:47:30;;;;;;;49.20;12.73;;;;;;;;;;5000776;28;20492;-48
2022/01/24 07:49:56;;;;;;;46.05;13.55;;;;;;;;;;5001382;28;20316;-47
2022/01/24 07:52:21;;;;;;;50.30;12.27;;;;;;;;;;4992743;28;20137;-46
2022/01/24 07:54:47;;;;;;;43.75;12.45;;;;;;;;;;4995963;28;20372;-49
2022/01/24 07:57:12;;;;;;;38.47;12.85;;;;;;;;;;4997834;28;20452;-53
2022/01/24 07:59:38;;;;;;;33.53;11.93;;;;;;;;;;4996593;28;20035;-48
2022/01/24 08:02:03;;;;;;;50.00;14.15;;;;;;;;;;4995577;28;20034;-48
2022/01/24 08:04:29;;;;;;;40.85;12.68;;;;;;;;;;4997523;28;20046;-50
2022/01/24 08:06:54;;;;;;;53.15;13.48;;;;;;;;;;4999123;28;20077;-49
2022/01/24 08:09:20;;;;;;;39.40;12.18;;;;;;;;;;4995962;28;20288;-46
2022/01/24 08:11:45;;;;;;;44.53;13.55;;;;;;;;;;4998892;28;20440;-48
2022/01/24 08:14:11;;;;;;;51.28;12.90;;;;;;;;;;4997867;28;20397;-47
2022/01/24 08:16:37;;;;;;;48.97;14.00;;;;;;;;;;4998794;28;20042;-47
2022/01/24 08:19:03;;;;;;;53.53;14.15;;;;;;;;;;4996434;28;20544;-46
2022/01/24 08:21:28;;;;;;;47.20;14.13;;;;;;;;;;4997050;28;20068;-48
2022/01/24 08:23:55;;;;;;;39.35;13.23;;;;;;;;;;5003128;28;20034;-47
2022/01/24 08:26:21;;;;;;;44.78;14.05;;;;;;;;;;4996754;28;20104;-46
2022/01/24 08:28:47;;;;;;;60.00;14.75;;;;;;;;;;4997849;28;20043;-48
2022/01/24 08:31:13;;;;;;;48.38;14.50;;;;;;;;;;5000851;28;21548;-50
2022/01/24 08:33:39;;;;;;;40.45;14.18;;;;;;;;;;4999949;28;20034;-51
2022/01/24 08:36:05;;;;;;;47.72;15.25;;;;;;;;;;4998302;28;20029;-51
2022/01/24 08:38:34;;;;;;;43.00;15.50;;;;;;;;;;5004650;28;20508;-48
2022/01/24 08:41:06;;;;;;;41.50;15.02;;;;;;;;;;4997811;28;20429;-48
2022/01/24 08:44:17;;;;;;;49.33;15.30;;;;;;;;;;5002568;28;20033;-51
2022/01/24 08:46:23;;;;;;;56.90;14.68;;;;;;;;;;4999405;28;20042;-51
2022/01/24 08:48:49;;;;;;;52.30;15.93;;;;;;;;;;5000344;28;20026;-52
2022/01/24 08:51:15;;;;;;;102.35;25.35;;;;;;;;;;4997963;28;20056;-49
2022/01/24 08:53:41;;;;;;;65.80;19.15;;;;;;;;;;4999984;28;20032;-52
2022/01/24 08:56:07;;;;;;;67.70;18.92;;;;;;;;;;4999686;28;20030;-47
2022/01/24 08:58:34;;;;;;;67.57;19.88;;;;;;;;;;5001953;28;20036;-53
2022/01/24 09:01:00;;;;;;;78.53;22.73;;;;;;;;;;5000221;28;20048;-51
2022/01/24 09:03:29;;;;;;;58.25;19.65;;;;;;;;;;5008229;28;20026;-51
2022/01/24 09:05:56;;;;;;;61.83;19.77;;;;;;;;;;5006259;28;20180;-48
2022/01/24 09:08:22;;;;;;;66.32;18.58;;;;;;;;;;5004968;28;20022;-48
2022/01/24 09:10:49;;;;;;;67.28;21.70;;;;;;;;;;4999784;28;20072;-48
2022/01/24 09:13:15;;;;;;;70.70;21.73;;;;;;;;;;5005162;28;20085;-47
2022/01/24 09:15:41;;;;;;;57.28;19.98;;;;;;;;;;5004652;28;20516;-48
2022/01/24 09:18:08;;;;;;;75.57;21.83;;;;;;;;;;5002502;28;20041;-49
2022/01/24 09:20:35;;;;;;;69.50;20.13;;;;;;;;;;5006531;28;20448;-47
2022/01/24 09:23:01;;;;;;;59.13;18.95;;;;;;;;;;5006238;28;20049;-47
2022/01/24 09:25:26;;;;;;;72.05;20.75;;;;;;;;;;5005356;28;20022;-49
2022/01/24 09:27:52;;;;;;;63.05;17.75;;;;;;;;;;5005000;28;20033;-47
2022/01/24 09:30:19;;;;;;;72.78;18.17;;;;;;;;;;5003999;28;20504;-48
2022/01/24 09:32:45;;;;;;;61.42;17.60;;;;;;;;;;4985918;28;20021;-50
2022/01/24 09:35:12;;;;;;;68.38;19.45;;;;;;;;;;5002772;28;20041;-48
2022/01/24 09:37:39;;;;;;;70.88;20.42;;;;;;;;;;5003861;28;20034;-49
2022/01/24 09:40:06;;;;;;;67.25;18.05;;;;;;;;;;5003780;28;20026;-49
2022/01/24 09:42:32;;;;;;;82.65;19.77;;;;;;;;;;5005381;28;20115;-48
2022/01/24 09:44:57;;;;;;;65.85;17.52;;;;;;;;;;4999913;28;20041;-52
2022/01/24 09:47:23;;;;;;;74.45;19.50;;;;;;;;;;4999504;28;20037;-51
2022/01/24 09:49:50;;;;;;;72.78;18.67;;;;;;;;;;5003869;28;20524;-49
2022/01/24 09:52:16;;;;;;;62.95;18.42;;;;;;;;;;4999656;28;20355;-48
2022/01/24 09:54:42;;;;;;;58.10;18.67;;;;;;;;;;5000961;28;20049;-50
2022/01/24 09:57:08;;;;;;;62.72;17.75;;;;;;;;;;4996514;28;20070;-52
2022/01/24 09:59:33;;;;;;;57.70;18.67;;;;;;;;;;4998872;28;20033;-48
2022/01/24 10:02:00;;;;;;;59.13;19.90;;;;;;;;;;5000388;28;20083;-48
2022/01/24 10:04:26;;;;;;;66.35;19.55;;;;;;;;;;4998943;28;20120;-49
2022/01/24 10:07:12;;;;;;;51.60;18.45;;;;;;;;;;4998328;28;20125;-47
2022/01/24 10:09:44;;;;;;;61.08;18.35;;;;;;;;;;5004240;28;20041;-48
2022/01/24 10:17:55;;;;;;;82.50;25.67;;;;;;;;;;5002415;28;20441;-50
2022/01/24 10:20:30;;;;;;;80.10;23.85;;;;;;;;;;4996744;28;20034;-51
2022/01/24 10:23:13;;;;;;;64.53;22.20;;;;;;;;;;5001119;28;20036;-49
2022/01/24 10:25:49;;;;;;;67.10;21.48;;;;;;;;;;5004818;28;20400;-50
2022/01/24 10:28:44;;;;;;;71.40;22.92;;;;;;;;;;5002908;28;20037;-48
2022/01/24 10:31:23;;;;;;;64.20;19.58;;;;;;;;;;5002344;28;20465;-48
2022/01/24 10:33:54;;;;;;;73.90;21.73;;;;;;;;;;4996706;28;20133;-50
2022/01/24 10:36:55;;;;;;;69.00;23.15;;;;;;;;;;5002887;28;20089;-49
2022/01/24 10:39:31;;;;;;;71.85;22.25;;;;;;;;;;4950046;28;20053;-51
2022/01/24 10:42:30;;;;;;;69.75;22.27;;;;;;;;;;4997379;28;20308;-49
2022/01/24 10:45:07;;;;;;;75.20;21.05;;;;;;;;;;5001734;28;20038;-49
2022/01/24 10:47:33;;;;;;;53.20;18.40;;;;;;;;;;4998689;28;20560;-49
2022/01/24 10:50:03;;;;;;;62.80;19.88;;;;;;;;;;5001387;28;20056;-51
2022/01/24 10:52:33;;;;;;;63.05;18.80;;;;;;;;;;5002734;28;20022;-51
2022/01/24 10:55:19;;;;;;;53.05;16.23;;;;;;;;;;4998689;28;20408;-48
2022/01/24 10:57:58;;;;;;;40.75;15.10;;;;;;;;;;4995957;28;20058;-47
2022/01/24 11:00:26;;;;;;;58.13;14.80;;;;;;;;;;5001283;28;20048;-47
2022/01/24 11:02:53;;;;;;;67.40;16.88;;;;;;;;;;5002888;28;20060;-46
2022/01/24 11:05:25;;;;;;;55.90;15.25;;;;;;;;;;5004058;28;20018;-49
2022/01/24 11:07:59;;;;;;;46.97;14.67;;;;;;;;;;5002977;28;20103;-47
2022/01/24 11:10:30;;;;;;;60.90;17.02;;;;;;;;;;4997330;28;20366;-47
2022/01/24 11:12:56;;;;;;;52.92;15.43;;;;;;;;;;5002713;28;22932;-47
2022/01/24 11:15:24;;;;;;;52.20;14.90;;;;;;;;;;5001577;28;20026;-47
2022/01/24 11:17:50;;;;;;;54.78;15.23;;;;;;;;;;4997667;28;20077;-47
2022/01/24 11:20:18;;;;;;;51.90;16.33;;;;;;;;;;5000029;28;20026;-47
2022/01/24 11:22:49;;;;;;;53.85;14.77;;;;;;;;;;4998150;28;20065;-50
2022/01/24 11:25:15;;;;;;;52.65;13.52;;;;;;;;;;5003471;28;20030;-48
2022/01/24 11:27:44;;;;;;;50.83;13.80;;;;;;;;;;5000248;28;20037;-50
2022/01/24 11:30:12;;;;;;;49.60;12.07;;;;;;;;;;4983977;28;20405;-50
2022/01/24 11:33:04;;;;;;;75.55;15.98;;;;;;;;;;4996536;28;20033;-50
2022/01/24 11:35:33;;;;;;;73.43;16.70;;;;;;;;;;4996959;28;20093;-48
2022/01/24 11:37:59;;;;;;;67.72;16.83;;;;;;;;;;4996457;28;20277;-52
2022/01/24 11:40:26;;;;;;;61.00;15.45;;;;;;;;;;5000906;28;20558;-51
2022/01/24 11:42:52;;;;;;;70.15;15.32;;;;;;;;;;4999362;28;20062;-51
2022/01/24 11:45:56;;;;;;;62.67;16.27;;;;;;;;;;4999786;28;20032;-50
2022/01/24 11:48:22;;;;;;;53.58;13.25;;;;;;;;;;4996776;28;20025;-52
2022/01/24 11:51:11;;;;;;;75.75;15.30;;;;;;;;;;4999445;28;20681;-51
2022/01/24 11:53:44;;;;;;;66.70;16.85;;;;;;;;;;4999861;28;20044;-52
2022/01/24 11:56:27;;;;;;;41.20;14.52;;;;;;;;;;5000331;28;20057;-51
2022/01/24 11:59:20;;;;;;;49.17;11.48;;;;;;;;;;5002706;28;20669;-50
2022/01/24 12:01:53;;;;;;;43.70;12.27;;;;;;;;;;4987591;28;20069;-48
2022/01/24 12:04:49;;;;;;;49.10;12.30;;;;;;;;;;5001905;28;20306;-48
2022/01/24 12:07:18;;;;;;;48.05;14.00;;;;;;;;;;4996339;28;20528;-48
2022/01/24 12:09:44;;;;;;;56.67;14.48;;;;;;;;;;4999318;28;20033;-50
2022/01/24 12:12:44;;;;;;;55.63;16.40;;;;;;;;;;5000683;28;20054;-49
2022/01/24 12:15:30;;;;;;;63.35;13.65;;;;;;;;;;4997503;28;20041;-48
2022/01/24 12:17:57;;;;;;;51.58;15.48;;;;;;;;;;5000661;28;20471;-48
2022/01/24 12:20:32;;;;;;;46.47;13.27;;;;;;;;;;4998902;28;20536;-49
2022/01/24 12:22:58;;;;;;;52.33;15.32;;;;;;;;;;4999282;28;20037;-49
2022/01/24 12:25:58;;;;;;;52.95;13.75;;;;;;;;;;4996871;28;20022;-48
2022/01/24 12:28:30;;;;;;;54.33;13.57;;;;;;;;;;4979177;28;20064;-51
2022/01/24 12:31:05;;;;;;;62.03;14.57;;;;;;;;;;5003069;28;20029;-52
2022/01/24 12:33:42;;;;;;;51.13;13.88;;;;;;;;;;5000749;28;20165;-50
2022/01/24 12:36:14;;;;;;;51.92;13.02;;;;;;;;;;4999290;28;20038;-52
2022/01/24 12:38:40;;;;;;;53.47;13.70;;;;;;;;;;4998625;28;20516;-52
2022/01/24 12:41:29;;;;;;;49.78;14.80;;;;;;;;;;5001397;28;20103;-52
2022/01/24 12:46:31;;;;;;;45.97;13.30;;;;;;;;;;5003567;28;20029;-53
2022/01/24 12:48:59;;;;;;;51.13;13.43;;;;;;;;;;5002515;28;20038;-53
2022/01/24 12:51:27;;;;;;;47.08;13.65;;;;;;;;;;5005293;28;20604;-52
2022/01/24 12:53:54;;;;;;;54.83;14.63;;;;;;;;;;5004177;28;20460;-52
2022/01/24 12:56:25;;;;;;;49.95;14.85;;;;;;;;;;5004511;28;20109;-49
2022/01/24 12:58:51;;;;;;;49.33;13.40;;;;;;;;;;5001948;28;20057;-51
2022/01/24 13:01:24;;;;;;;39.42;13.55;;;;;;;;;;5003830;28;20029;-49
2022/01/24 13:03:57;;;;;;;50.28;14.88;;;;;;;;;;5002590;28;20080;-50
2022/01/24 13:06:25;;;;;;;43.58;13.52;;;;;;;;;;5003644;28;20018;-51
2022/01/24 13:09:04;;;;;;;40.58;13.43;;;;;;;;;;5005178;28;20038;-49
2022/01/24 13:11:31;;;;;;;56.17;15.13;;;;;;;;;;5001875;28;20065;-52
2022/01/24 13:14:12;;;;;;;45.25;13.07;;;;;;;;;;5001444;28;20142;-50
2022/01/24 13:22:16;;;;;;;48.33;13.95;;;;;;;;;;5002047;28;20041;-48
2022/01/24 13:25:06;;;;;;;49.28;14.20;;;;;;;;;;5003335;28;20551;-49
2022/01/24 13:27:38;;;;;;;52.55;12.57;;;;;;;;;;5003212;28;20025;-51
2022/01/24 13:30:05;;;;;;;52.83;13.48;;;;;;;;;;5000625;28;20029;-52
2022/01/24 13:32:47;;;;;;;54.13;13.20;;;;;;;;;;5002618;28;20405;-52
2022/01/24 13:35:38;;;;;;;42.10;13.45;;;;;;;;;;5002323;28;20022;-51
2022/01/24 13:38:09;;;;;;;44.88;13.23;;;;;;;;;;4999077;28;20029;-50
2022/01/24 13:40:35;;;;;;;54.10;14.00;;;;;;;;;;4999544;28;20540;-53
2022/01/24 13:43:01;;;;;;;41.28;13.85;;;;;;;;;;4998915;28;20164;-51
2022/01/24 13:45:27;;;;;;;34.45;12.43;;;;;;;;;;5003227;28;20507;-51
2022/01/24 13:48:00;;;;;;;43.78;14.05;;;;;;;;;;5002950;28;20033;-52
2022/01/24 13:50:26;;;;;;;52.97;14.55;;;;;;;;;;4999297;28;20033;-51
2022/01/24 13:52:53;;;;;;;37.50;13.43;;;;;;;;;;5005307;28;20048;-51
2022/01/24 13:55:22;;;;;;;52.72;13.30;;;;;;;;;;5001273;28;20548;-52
2022/01/24 13:57:50;;;;;;;44.85;11.48;;;;;;;;;;5003595;28;20038;-49
2022/01/24 14:00:23;;;;;;;46.40;12.25;;;;;;;;;;5001838;28;20025;-50
2022/01/24 14:02:50;;;;;;;48.33;14.68;;;;;;;;;;5004274;28;20034;-47
2022/01/24 14:05:16;;;;;;;39.22;13.68;;;;;;;;;;5002327;28;20030;-47
2022/01/24 14:07:42;;;;;;;43.45;12.73;;;;;;;;;;5001881;28;20524;-47
2022/01/24 14:10:13;;;;;;;45.63;13.35;;;;;;;;;;5002713;28;20298;-51
2022/01/24 14:12:56;;;;;;;42.10;13.73;;;;;;;;;;5002971;28;20121;-50
2022/01/24 14:15:43;;;;;;;64.07;20.45;;;;;;;;;;4999739;28;20061;-46
2022/01/24 14:20:50;;;;;;;60.08;19.50;;;;;;;;;;4999418;28;20030;-48
2022/01/24 14:23:23;;;;;;;;;;;;;;;;;;5001345;28;20155;-45
2022/01/24 14:25:49;;;;;;;;;;;;;;;;;;5003013;28;19928;-46
2022/01/24 14:28:14;;;;;;;60.53;22.15;;;;;;;;;;5008467;28;19913;-47
2022/01/24 14:30:43;;;;;;;65.25;22.08;;;;;;;;;;5001480;28;20026;-46
2022/01/24 14:33:12;;;;;;;72.25;20.95;;;;;;;;;;5005060;28;20338;-47
2022/01/24 14:35:56;;;;;;;67.75;21.98;;;;;;;;;;4999962;28;20026;-47
2022/01/24 14:38:34;;;;;;;65.80;24.85;;;;;;;;;;4997730;28;20327;-47
2022/01/24 14:41:03;;;;;;;54.67;19.55;;;;;;;;;;5001819;28;20486;-49
2022/01/24 14:46:21;;;;;;;66.65;20.42;;;;;;;;;;4999831;28;20570;-52
2022/01/24 14:48:51;;;;;;;57.65;21.83;;;;;;;;;;5001038;28;20406;-52
2022/01/24 14:51:22;;;;;;;66.07;22.50;;;;;;;;;;4986115;28;20107;-57
2022/01/24 14:53:49;;;;;;;60.40;22.33;;;;;;;;;;5005607;28;20734;-56
2022/01/24 14:56:16;;;;;;;70.32;22.58;;;;;;;;;;5004106;28;20068;-53
2022/01/24 14:58:42;;;;;;;70.55;20.92;;;;;;;;;;5004320;28;20029;-53
2022/01/24 15:01:07;;;;;;;70.25;21.48;;;;;;;;;;4999113;28;20457;-52
2022/01/24 15:03:33;;;;;;;77.18;24.08;;;;;;;;;;4999596;28;20119;-53
2022/01/24 15:06:00;;;;;;;68.07;23.50;;;;;;;;;;5001505;28;20141;-53
2022/01/24 15:08:25;;;;;;;61.25;22.55;;;;;;;;;;4999610;28;20026;-52
2022/01/24 15:10:52;;;;;;;61.70;22.17;;;;;;;;;;5002762;28;20099;-53
2022/01/24 15:13:22;;;;;;;65.38;23.70;;;;;;;;;;5005059;28;20433;-51
2022/01/24 15:15:57;;;;;;;57.78;22.50;;;;;;;;;;4998928;28;20080;-50
2022/01/24 15:26:35;;;;;;;75.65;22.15;;;;;;;;;;5003197;28;20068;-53
2022/01/24 15:29:00;;;;;;;70.22;22.48;;;;;;;;;;4995659;28;20053;-52
2022/01/24 15:31:26;;;;;;;66.38;22.00;;;;;;;;;;5000388;28;20045;-49
2022/01/24 15:33:51;;;;;;;65.95;21.92;;;;;;;;;;5001371;28;20540;-50
2022/01/24 15:36:17;;;;;;;59.78;22.75;;;;;;;;;;5001637;28;20026;-50
2022/01/24 15:38:42;;;;;;;76.05;24.67;;;;;;;;;;5000808;28;20124;-52
2022/01/24 15:41:08;;;;;;;62.33;22.92;;;;;;;;;;4997829;28;20508;-49
2022/01/24 15:48:42;;;;;;;83.60;25.10;;;;;;;;;;4999183;28;20108;-53
2022/01/24 15:51:12;;;;;;;72.65;24.30;;;;;;;;;;4998422;28;20045;-52
2022/01/24 15:53:38;;;;;;;65.18;23.08;;;;;;;;;;5001432;28;20033;-52
2022/01/24 15:58:38;;;;;;;78.95;24.25;;;;;;;;;;5003423;28;20282;-51
2022/01/24 16:01:04;;;;;;;76.38;23.33;;;;;;;;;;4999305;28;20030;-51
2022/01/24 16:03:29;;;;;;;65.13;21.73;;;;;;;;;;4999176;28;20116;-52
2022/01/24 16:05:55;;;;;;;67.90;21.30;;;;;;;;;;5003537;28;20036;-53
2022/01/24 16:08:22;;;;;;;75.40;24.95;;;;;;;;;;5002559;28;20535;-50
2022/01/24 16:10:48;;;;;;;73.25;24.95;;;;;;;;;;5001000;28;20111;-52
2022/01/24 16:13:16;;;;;;;78.68;25.60;;;;;;;;;;5001180;28;20058;-53
2022/01/24 16:15:42;;;;;;;78.72;23.75;;;;;;;;;;4999527;28;20048;-52
2022/01/24 16:18:13;;;;;;;76.20;24.73;;;;;;;;;;4999434;28;20033;-50
2022/01/24 16:21:13;;;;;;;76.40;24.05;;;;;;;;;;5001733;28;20428;-52
2022/01/24 16:24:05;;;;;;;78.32;23.60;;;;;;;;;;4998817;28;20038;-52
2022/01/24 16:26:30;;;;;;;75.05;23.00;;;;;;;;;;5004199;28;20065;-51
2022/01/24 16:28:56;;;;;;;72.43;23.98;;;;;;;;;;5001056;28;20056;-50
2022/01/24 16:31:21;;;;;;;68.50;22.70;;;;;;;;;;4995505;28;20025;-50
2022/01/24 16:33:47;;;;;;;82.82;23.58;;;;;;;;;;5002382;28;20037;-50